createdAt,value
2022-11-20T00:01:20.825Z,33.17
2022-11-20T00:03:47.328Z,32.88
2022-11-20T00:06:16.892Z,31.48
2022-11-20T00:08:43.759Z,32.15
2022-11-20T00:11:15.749Z,35.10
2022-11-20T00:13:46.905Z,33.38
2022-11-20T00:16:17.323Z,37.05
2022-11-20T00:18:44.844Z,39.63
2022-11-20T00:21:13.948Z,37.65
2022-11-20T00:23:40.488Z,36.55
2022-11-20T00:26:09.976Z,36.78
2022-11-20T00:28:36.850Z,34.47
2022-11-20T00:31:08.609Z,37.17
2022-11-20T00:33:35.702Z,34.60
2022-11-20T00:36:03.261Z,34.40
2022-11-20T00:38:30.584Z,32.35
2022-11-20T00:40:58.639Z,33.80
2022-11-20T00:43:25.821Z,34.35
2022-11-20T00:45:57.794Z,40.17
2022-11-20T00:48:24.289Z,43.10
2022-11-20T00:50:50.692Z,51.67
2022-11-20T00:53:17.237Z,40.80
2022-11-20T00:55:43.636Z,36.75
2022-11-20T00:58:14.122Z,31.13
2022-11-20T01:00:40.988Z,29.75
2022-11-20T01:03:07.428Z,30.67
2022-11-20T01:05:36.376Z,34.25
2022-11-20T01:08:02.826Z,32.67
2022-11-20T01:10:29.837Z,30.70
2022-11-20T01:13:14.980Z,30.58
2022-11-20T01:15:41.474Z,27.95
2022-11-20T01:18:07.882Z,29.02
2022-11-20T01:20:37.649Z,29.10
2022-11-20T01:23:04.799Z,26.08
2022-11-20T01:25:31.232Z,28.10
2022-11-20T01:27:57.648Z,29.85
2022-11-20T01:30:24.076Z,27.63
2022-11-20T01:32:50.475Z,26.95
2022-11-20T01:35:16.889Z,26.67
2022-11-20T01:37:43.771Z,25.25
2022-11-20T01:40:10.845Z,25.88
2022-11-20T01:42:56.146Z,21.50
2022-11-20T01:46:01.468Z,22.63
2022-11-20T01:48:34.699Z,18.35
2022-11-20T01:51:02.058Z,19.48
2022-11-20T01:53:33.174Z,18.23
2022-11-20T01:56:02.591Z,19.88
2022-11-20T01:58:33.559Z,18.98
2022-11-20T02:01:00.567Z,15.52
2022-11-20T02:03:27.517Z,16.55
2022-11-20T02:06:15.425Z,20.00
2022-11-20T02:08:41.883Z,19.00
2022-11-20T02:11:08.497Z,21.48
2022-11-20T02:13:44.387Z,19.75
2022-11-20T02:16:16.188Z,22.08
2022-11-20T02:18:44.410Z,23.08
2022-11-20T02:22:08.092Z,19.17
2022-11-20T02:24:34.890Z,27.70
2022-11-20T02:27:13.494Z,21.77
2022-11-20T02:29:53.448Z,30.02
2022-11-20T02:32:19.936Z,34.85
2022-11-20T02:34:46.364Z,27.58
2022-11-20T02:37:13.243Z,24.55
2022-11-20T02:39:41.161Z,22.65
2022-11-20T02:42:07.660Z,24.40
2022-11-20T02:44:34.111Z,22.33
2022-11-20T02:47:00.746Z,22.25
2022-11-20T02:49:27.246Z,21.60
2022-11-20T02:51:53.736Z,20.13
2022-11-20T02:54:20.146Z,20.48
2022-11-20T02:56:46.590Z,20.45
2022-11-20T02:59:13.196Z,22.25
2022-11-20T03:01:39.898Z,18.70
2022-11-20T03:04:06.365Z,17.35
2022-11-20T03:06:32.944Z,17.92
2022-11-20T03:08:59.347Z,21.77
2022-11-20T03:11:25.847Z,19.48
2022-11-20T03:13:52.369Z,18.10
2022-11-20T03:16:21.824Z,16.83
2022-11-20T03:18:48.545Z,18.73
2022-11-20T03:21:16.584Z,18.38
2022-11-20T03:23:43.712Z,18.23
2022-11-20T03:26:16.344Z,18.00
2022-11-20T03:28:48.831Z,18.80
2022-11-20T03:31:17.054Z,19.90
2022-11-20T03:33:44.052Z,18.35
2022-11-20T03:36:13.785Z,17.75
2022-11-20T03:38:40.812Z,20.42
2022-11-20T03:41:11.022Z,18.38
2022-11-20T03:43:37.821Z,17.75
2022-11-20T03:46:05.107Z,19.15
2022-11-20T03:48:31.987Z,19.05
2022-11-20T03:51:12.963Z,19.88
2022-11-20T03:53:43.973Z,22.23
2022-11-20T03:56:11.429Z,23.63
2022-11-20T03:58:42.177Z,23.73
2022-11-20T04:01:10.634Z,24.92
2022-11-20T04:03:38.583Z,28.48
2022-11-20T04:06:09.830Z,25.85
2022-11-20T04:08:36.604Z,31.67
2022-11-20T04:11:28.397Z,32.25
2022-11-20T04:16:24.064Z,27.95
2022-11-20T04:18:58.392Z,43.30
2022-11-20T04:21:25.966Z,34.65
2022-11-20T04:23:56.521Z,34.63
2022-11-20T04:26:25.450Z,33.00
2022-11-20T04:28:52.261Z,34.40
2022-11-20T04:31:21.336Z,34.10
2022-11-20T04:33:48.167Z,30.83
2022-11-20T04:36:20.837Z,32.35
2022-11-20T04:38:56.307Z,30.17
2022-11-20T04:41:26.420Z,32.72
2022-11-20T04:43:59.930Z,32.05
2022-11-20T04:46:28.580Z,29.65
2022-11-20T04:48:55.311Z,29.90
2022-11-20T04:51:21.886Z,25.63
2022-11-20T04:53:49.320Z,27.98
2022-11-20T04:56:16.649Z,29.23
2022-11-20T04:58:43.979Z,30.40
2022-11-20T05:01:16.256Z,31.85
2022-11-20T05:03:43.764Z,30.38
2022-11-20T05:06:12.953Z,26.83
2022-11-20T05:08:39.442Z,25.92
2022-11-20T05:11:08.876Z,24.67
2022-11-20T05:13:36.141Z,26.20
2022-11-20T05:16:07.412Z,24.52
2022-11-20T05:18:35.445Z,20.27
2022-11-20T05:21:01.937Z,23.50
2022-11-20T05:23:30.192Z,21.27
2022-11-20T05:25:59.424Z,20.73
2022-11-20T05:28:27.382Z,23.30
2022-11-20T05:30:53.784Z,20.95
2022-11-20T05:33:20.393Z,21.25
2022-11-20T05:35:46.872Z,22.20
2022-11-20T05:38:13.404Z,21.25
2022-11-20T05:40:39.855Z,21.60
2022-11-20T05:43:06.401Z,20.20
2022-11-20T05:45:32.905Z,21.05
2022-11-20T05:48:02.320Z,19.48
2022-11-20T05:50:29.191Z,21.30
2022-11-20T05:52:55.955Z,24.05
2022-11-20T05:55:22.456Z,23.83
2022-11-20T05:57:48.891Z,20.90
2022-11-20T06:00:15.949Z,29.85
2022-11-20T06:02:42.473Z,26.85
2022-11-20T06:05:09.148Z,25.00
2022-11-20T06:07:35.634Z,22.48
2022-11-20T06:10:02.090Z,22.25
2022-11-20T06:12:28.590Z,19.42
2022-11-20T06:14:55.001Z,22.55
2022-11-20T06:17:21.421Z,34.13
2022-11-20T06:19:47.831Z,29.90
2022-11-20T06:22:14.342Z,37.25
2022-11-20T06:24:40.769Z,24.65
2022-11-20T06:27:07.216Z,24.45
2022-11-20T06:29:34.181Z,27.15
2022-11-20T06:32:00.842Z,40.70
2022-11-20T06:34:27.301Z,52.47
2022-11-20T06:36:53.724Z,28.70
2022-11-20T06:39:20.736Z,30.52
2022-11-20T06:41:47.437Z,24.23
2022-11-20T06:44:13.872Z,24.92
2022-11-20T06:46:40.288Z,24.90
2022-11-20T06:49:06.928Z,23.27
2022-11-20T06:51:33.476Z,22.75
2022-11-20T06:54:01.806Z,30.65
2022-11-20T06:56:28.869Z,39.35
2022-11-20T06:58:55.307Z,21.65
2022-11-20T07:01:21.832Z,26.13
2022-11-20T07:03:54.383Z,23.75
2022-11-20T07:06:21.293Z,22.02
2022-11-20T07:08:48.021Z,19.67
2022-11-20T07:11:14.447Z,17.75
2022-11-20T07:13:41.085Z,17.20
2022-11-20T07:16:08.915Z,21.60
2022-11-20T07:18:35.949Z,22.25
2022-11-20T07:21:05.161Z,20.25
2022-11-20T07:23:31.885Z,22.50
2022-11-20T07:25:58.346Z,19.92
2022-11-20T07:28:24.840Z,21.15
2022-11-20T07:30:52.503Z,20.52
2022-11-20T07:33:19.082Z,24.30
2022-11-20T07:35:46.033Z,22.92
2022-11-20T07:38:12.541Z,21.35
2022-11-20T07:40:38.996Z,26.35
2022-11-20T07:43:05.431Z,27.05
2022-11-20T07:45:31.925Z,24.52
2022-11-20T07:47:58.349Z,25.35
2022-11-20T07:50:24.802Z,26.70
2022-11-20T07:52:51.540Z,26.17
2022-11-20T07:55:18.110Z,19.08
2022-11-20T07:57:44.584Z,21.80
2022-11-20T08:00:12.306Z,29.30
2022-11-20T08:02:42.554Z,26.75
2022-11-20T08:05:10.511Z,24.55
2022-11-20T08:07:38.828Z,23.65
2022-11-20T08:10:05.882Z,27.25
2022-11-20T08:12:50.603Z,25.85
2022-11-20T08:15:17.266Z,44.17
2022-11-20T08:17:56.776Z,30.70
2022-11-20T08:20:30.508Z,31.50
2022-11-20T08:23:02.224Z,23.42
2022-11-20T08:25:30.419Z,38.95
2022-11-20T08:28:10.325Z,50.30
2022-11-20T08:30:45.190Z,34.85
2022-11-20T08:33:11.650Z,36.13
2022-11-20T08:35:38.897Z,44.00
2022-11-20T08:38:06.559Z,60.65
2022-11-20T08:40:33.916Z,32.67
2022-11-20T08:43:00.453Z,23.48
2022-11-20T08:45:31.033Z,30.85
2022-11-20T08:48:04.482Z,29.92
2022-11-20T08:50:33.027Z,24.13
2022-11-20T08:53:04.556Z,27.02
2022-11-20T08:55:30.972Z,25.88
2022-11-20T08:57:57.389Z,23.30
2022-11-20T09:00:23.922Z,26.80
2022-11-20T09:02:50.342Z,23.35
2022-11-20T09:05:16.742Z,25.83
2022-11-20T09:07:43.289Z,23.55
2022-11-20T09:10:23.771Z,25.00
2022-11-20T09:12:52.563Z,27.65
2022-11-20T09:15:19.670Z,25.52
2022-11-20T09:17:59.865Z,24.77
2022-11-20T09:20:27.670Z,26.58
2022-11-20T09:22:54.175Z,23.42
2022-11-20T09:25:20.671Z,24.17
2022-11-20T09:27:47.405Z,29.50
2022-11-20T09:30:17.186Z,28.05
2022-11-20T09:32:43.876Z,26.00
2022-11-20T09:35:11.321Z,29.58
2022-11-20T09:37:37.793Z,30.17
2022-11-20T09:40:04.710Z,28.10
2022-11-20T09:42:43.045Z,28.40
2022-11-20T09:45:40.832Z,28.85
2022-11-20T09:48:16.280Z,27.38
2022-11-20T09:51:11.078Z,27.33
2022-11-20T09:53:49.990Z,30.27
2022-11-20T09:56:22.594Z,28.80
2022-11-20T09:58:52.696Z,30.42
2022-11-20T10:01:22.070Z,28.60
2022-11-20T10:03:57.548Z,29.88
2022-11-20T10:06:33.753Z,28.17
2022-11-20T10:09:23.985Z,28.52
2022-11-20T10:12:10.612Z,29.05
2022-11-20T10:14:46.079Z,27.67
2022-11-20T10:17:42.017Z,30.00
2022-11-20T10:20:20.663Z,27.15
2022-11-20T10:23:25.784Z,29.65
2022-11-20T10:26:03.065Z,28.92
2022-11-20T10:28:59.871Z,28.05
2022-11-20T10:31:46.899Z,27.63
2022-11-20T10:34:27.853Z,27.70
2022-11-20T10:37:04.675Z,31.25
2022-11-20T10:39:38.847Z,30.52
2022-11-20T10:42:12.015Z,34.53
2022-11-20T10:45:05.823Z,33.53
2022-11-20T10:47:33.751Z,31.90
2022-11-20T10:50:05.348Z,33.40
2022-11-20T10:53:02.817Z,33.67
2022-11-20T10:55:45.981Z,33.58
2022-11-20T10:58:27.521Z,34.25
2022-11-20T11:03:32.303Z,31.75
2022-11-20T11:06:11.475Z,29.38
2022-11-20T11:08:40.180Z,31.83
2022-11-20T11:11:28.391Z,31.85
2022-11-20T11:14:09.329Z,32.88
2022-11-20T11:16:36.706Z,30.38
2022-11-20T11:19:15.753Z,30.25
2022-11-20T11:22:11.863Z,32.00
2022-11-20T11:24:43.104Z,31.17
2022-11-20T11:29:44.585Z,28.75
2022-11-20T11:32:22.708Z,29.15
2022-11-20T11:35:04.145Z,28.48
2022-11-20T11:37:36.523Z,29.33
2022-11-20T11:40:23.322Z,26.70
2022-11-20T11:43:26.754Z,26.67
2022-11-20T11:45:55.720Z,24.60
2022-11-20T11:48:23.105Z,27.67
2022-11-20T11:50:51.603Z,24.85
2022-11-20T11:53:20.773Z,22.42
2022-11-20T11:56:04.954Z,22.80
2022-11-20T11:58:51.269Z,22.58
2022-11-20T12:01:45.640Z,24.58
2022-11-20T12:04:56.045Z,22.38
2022-11-20T12:07:47.697Z,23.15
2022-11-20T12:10:36.665Z,23.48
2022-11-20T12:13:11.481Z,21.88
2022-11-20T12:15:44.336Z,20.33
2022-11-20T12:18:19.244Z,19.52
2022-11-20T12:21:20.163Z,19.52
2022-11-20T12:23:49.464Z,19.87
2022-11-20T12:26:32.630Z,23.15
2022-11-20T12:29:19.944Z,19.20
2022-11-20T12:32:02.889Z,20.10
2022-11-20T12:34:52.447Z,19.70
2022-11-20T12:37:32.285Z,22.55
2022-11-20T12:40:10.320Z,21.40
2022-11-20T12:43:12.286Z,25.17
2022-11-20T12:45:59.236Z,23.85
2022-11-20T12:48:46.464Z,24.15
2022-11-20T12:51:30.000Z,24.13
2022-11-20T12:54:12.071Z,23.05
2022-11-20T12:56:48.123Z,25.83
2022-11-20T12:59:45.669Z,21.02
2022-11-20T13:02:15.052Z,22.55
2022-11-20T13:05:14.917Z,21.58
2022-11-20T13:07:42.837Z,23.48
2022-11-20T13:10:27.389Z,21.42
2022-11-20T13:13:12.615Z,17.83
2022-11-20T13:15:54.192Z,18.35
2022-11-20T13:18:21.192Z,17.30
2022-11-20T13:20:49.085Z,19.30
2022-11-20T13:23:29.135Z,18.40
2022-11-20T13:26:07.864Z,18.20
2022-11-20T13:28:34.531Z,24.65
2022-11-20T13:31:01.184Z,18.58
2022-11-20T13:33:37.630Z,18.70
2022-11-20T13:36:20.584Z,18.90
2022-11-20T13:38:55.721Z,18.83
2022-11-20T13:41:36.344Z,19.33
2022-11-20T13:44:13.820Z,16.67
2022-11-20T13:46:46.321Z,18.45
2022-11-20T13:49:21.721Z,17.77
2022-11-20T13:51:51.744Z,16.40
2022-11-20T13:54:26.137Z,18.67
2022-11-20T13:57:07.620Z,19.23
2022-11-20T14:02:22.229Z,17.73
2022-11-20T14:04:54.611Z,17.17
2022-11-20T14:07:25.467Z,17.90
2022-11-20T14:09:57.209Z,18.65
2022-11-20T14:12:30.001Z,18.58
2022-11-20T14:14:57.021Z,22.67
2022-11-20T14:17:32.786Z,18.50
2022-11-20T14:20:08.378Z,19.63
2022-11-20T14:22:34.866Z,19.60
2022-11-20T14:25:24.202Z,19.60
2022-11-20T14:27:59.627Z,18.02
2022-11-20T14:30:43.907Z,18.42
2022-11-20T14:33:13.278Z,20.65
2022-11-20T14:35:48.936Z,20.63
2022-11-20T14:38:19.515Z,21.65
2022-11-20T14:40:46.065Z,19.20
2022-11-20T14:43:23.179Z,20.50
2022-11-20T14:46:10.830Z,21.23
2022-11-20T14:48:44.351Z,20.70
2022-11-20T14:51:32.340Z,19.65
2022-11-20T14:54:18.865Z,20.45
2022-11-20T14:57:04.784Z,21.83
2022-11-20T14:59:35.774Z,22.83
2022-11-20T15:02:04.552Z,22.75
2022-11-20T15:04:31.189Z,23.77
2022-11-20T15:07:00.041Z,21.52
2022-11-20T15:09:26.823Z,23.45
2022-11-20T15:12:04.362Z,28.25
2022-11-20T15:14:33.667Z,35.00
2022-11-20T15:17:00.560Z,26.58
2022-11-20T15:19:28.044Z,26.65
2022-11-20T15:21:54.646Z,22.75
2022-11-20T15:24:21.742Z,20.95
2022-11-20T15:26:48.837Z,22.38
2022-11-20T15:29:19.828Z,43.60
2022-11-20T15:31:46.584Z,59.65
2022-11-20T15:34:17.038Z,62.67
2022-11-20T15:36:44.857Z,91.53
2022-11-20T15:39:12.567Z,75.25
2022-11-20T15:41:39.842Z,56.17
2022-11-20T15:44:06.718Z,41.38
2022-11-20T15:46:39.522Z,35.55
2022-11-20T15:49:07.258Z,32.58
2022-11-20T15:51:35.061Z,28.27
2022-11-20T15:54:09.855Z,27.48
2022-11-20T15:56:36.477Z,25.35
2022-11-20T15:59:02.992Z,27.77
2022-11-20T16:01:29.594Z,27.83
2022-11-20T16:03:56.034Z,25.60
2022-11-20T16:06:22.596Z,27.48
2022-11-20T16:08:49.068Z,27.45
2022-11-20T16:11:17.994Z,37.58
2022-11-20T16:14:03.306Z,36.22
2022-11-20T16:16:33.687Z,29.25
2022-11-20T16:19:00.970Z,25.67
2022-11-20T16:21:31.862Z,20.55
2022-11-20T16:24:05.869Z,20.92
2022-11-20T16:26:33.064Z,23.67
2022-11-20T16:29:00.699Z,23.45
2022-11-20T16:31:27.607Z,22.17
2022-11-20T16:33:56.330Z,21.85
2022-11-20T16:36:25.485Z,23.35
2022-11-20T16:38:56.807Z,22.13
2022-11-20T16:41:26.541Z,22.88
2022-11-20T16:43:58.909Z,25.23
2022-11-20T16:46:31.890Z,26.83
2022-11-20T16:49:00.711Z,27.10
2022-11-20T16:51:29.083Z,26.08
2022-11-20T16:53:58.744Z,28.23
2022-11-20T16:56:27.138Z,27.88
2022-11-20T16:58:56.899Z,31.27
2022-11-20T17:01:25.102Z,28.27
2022-11-20T17:04:02.635Z,28.77
2022-11-20T17:06:31.720Z,25.70
2022-11-20T17:08:59.028Z,28.48
2022-11-20T17:11:26.418Z,28.58
2022-11-20T17:13:55.370Z,32.42
2022-11-20T17:16:23.813Z,32.58
2022-11-20T17:18:50.814Z,35.03
2022-11-20T17:21:18.999Z,36.80
2022-11-20T17:23:46.801Z,40.17
2022-11-20T17:26:22.370Z,46.40
2022-11-20T17:28:59.872Z,43.97
2022-11-20T17:31:27.440Z,43.95
2022-11-20T17:33:53.938Z,44.05
2022-11-20T17:36:21.105Z,43.33
2022-11-20T17:38:47.700Z,49.88
2022-11-20T17:41:19.719Z,51.22
2022-11-20T17:43:46.550Z,51.53
2022-11-20T17:46:14.504Z,52.10
2022-11-20T17:48:44.692Z,54.55
2022-11-20T17:51:20.193Z,54.50
2022-11-20T17:53:51.557Z,56.67
2022-11-20T17:56:37.199Z,54.05
2022-11-20T17:59:08.088Z,56.33
2022-11-20T18:01:35.455Z,54.33
2022-11-20T18:04:02.782Z,55.30
2022-11-20T18:06:31.111Z,59.30
2022-11-20T18:09:02.565Z,59.25
2022-11-20T18:14:17.959Z,61.63
2022-11-20T18:16:47.027Z,63.88
2022-11-20T18:19:16.961Z,63.42
2022-11-20T18:21:43.774Z,62.95
2022-11-20T18:24:10.508Z,64.78
2022-11-20T18:26:42.762Z,66.60
2022-11-20T18:29:11.444Z,65.95
2022-11-20T18:31:38.007Z,62.90
2022-11-20T18:34:04.934Z,65.88
2022-11-20T18:36:32.574Z,63.55
2022-11-20T18:39:01.579Z,62.35
2022-11-20T18:41:48.923Z,63.72
2022-11-20T18:44:37.080Z,58.72
2022-11-20T18:47:08.344Z,56.42
2022-11-20T18:49:40.528Z,56.80
2022-11-20T18:52:07.239Z,55.53
2022-11-20T18:54:36.110Z,55.42
2022-11-20T18:57:02.977Z,52.47
2022-11-20T18:59:29.606Z,53.08
2022-11-20T19:01:56.298Z,56.67
2022-11-20T19:04:23.281Z,52.10
2022-11-20T19:06:49.911Z,50.58
2022-11-20T19:09:16.691Z,54.13
2022-11-20T19:11:43.119Z,52.65
2022-11-20T19:14:09.662Z,53.80
2022-11-20T19:16:36.607Z,53.40
2022-11-20T19:19:05.428Z,54.08
2022-11-20T19:21:31.905Z,57.83
2022-11-20T19:24:00.055Z,66.20
2022-11-20T19:26:26.916Z,69.15
2022-11-20T19:28:53.931Z,66.20
2022-11-20T19:31:24.611Z,62.08
2022-11-20T19:34:03.210Z,63.15
2022-11-20T19:36:35.241Z,62.63
2022-11-20T19:39:05.451Z,52.65
2022-11-20T19:41:33.709Z,52.63
2022-11-20T19:44:05.839Z,47.65
2022-11-20T19:46:34.146Z,48.58
2022-11-20T19:49:00.692Z,54.85
2022-11-20T19:51:33.785Z,50.50
2022-11-20T19:54:01.117Z,60.28
2022-11-20T19:56:29.243Z,61.15
2022-11-20T19:58:57.039Z,63.60
2022-11-20T20:01:26.733Z,59.58
2022-11-20T20:03:53.937Z,53.78
2022-11-20T20:06:23.132Z,66.00
2022-11-20T20:09:07.672Z,49.85
2022-11-20T20:11:35.411Z,46.55
2022-11-20T20:14:03.377Z,46.72
2022-11-20T20:16:29.977Z,46.83
2022-11-20T20:19:01.730Z,43.30
2022-11-20T20:21:30.485Z,42.28
2022-11-20T20:23:58.502Z,45.60
2022-11-20T20:26:26.940Z,52.22
2022-11-20T20:28:53.491Z,52.92
2022-11-20T20:31:25.087Z,53.05
2022-11-20T20:33:52.014Z,40.13
2022-11-20T20:36:20.226Z,37.13
2022-11-20T20:38:47.231Z,32.30
2022-11-20T20:41:14.685Z,31.65
2022-11-20T20:44:00.109Z,31.77
2022-11-20T20:46:26.649Z,31.83
2022-11-20T20:48:54.814Z,32.65
2022-11-20T20:51:21.897Z,34.38
2022-11-20T20:53:48.528Z,38.53
2022-11-20T20:56:15.146Z,39.75
2022-11-20T20:58:41.661Z,41.83
2022-11-20T21:01:11.016Z,50.90
2022-11-20T21:03:37.564Z,46.67
2022-11-20T21:06:05.223Z,44.95
2022-11-20T21:08:31.769Z,40.65
2022-11-20T21:11:01.685Z,38.55
2022-11-20T21:13:29.023Z,37.30
2022-11-20T21:15:55.678Z,35.03
2022-11-20T21:18:23.664Z,38.15
2022-11-20T21:21:09.258Z,35.63
2022-11-20T21:23:36.902Z,40.25
2022-11-20T21:26:06.241Z,53.38
2022-11-20T21:28:34.160Z,98.45
2022-11-20T21:31:13.019Z,76.70
2022-11-20T21:33:39.481Z,102.57
2022-11-20T21:36:07.349Z,73.72
2022-11-20T21:38:34.991Z,76.53
2022-11-20T21:41:01.876Z,65.47
2022-11-20T21:43:28.643Z,46.97
2022-11-20T21:46:01.371Z,38.00
2022-11-20T21:48:30.108Z,34.10
2022-11-20T21:50:56.685Z,35.65
2022-11-20T21:53:23.135Z,36.40
2022-11-20T21:55:56.404Z,32.65
2022-11-20T21:58:23.189Z,32.55
2022-11-20T22:00:49.997Z,34.20
2022-11-20T22:03:16.770Z,34.47
2022-11-20T22:05:43.207Z,32.15
2022-11-20T22:08:09.730Z,34.15
2022-11-20T22:10:36.182Z,32.65
2022-11-20T22:13:20.873Z,36.60
2022-11-20T22:16:00.469Z,33.40
2022-11-20T22:18:27.545Z,36.45
2022-11-20T22:20:54.047Z,36.63
2022-11-20T22:23:20.451Z,35.60
2022-11-20T22:25:46.865Z,33.05
2022-11-20T22:28:13.357Z,35.45
2022-11-20T22:30:39.774Z,33.97
2022-11-20T22:33:11.920Z,36.58
2022-11-20T22:35:39.855Z,32.67
2022-11-20T22:38:07.641Z,33.70
2022-11-20T22:40:34.088Z,35.08
2022-11-20T22:43:00.514Z,33.15
2022-11-20T22:45:26.938Z,33.13
2022-11-20T22:47:53.402Z,33.47
2022-11-20T22:50:19.817Z,30.77
2022-11-20T22:52:46.258Z,47.97
2022-11-20T22:55:16.282Z,45.03
2022-11-20T22:57:42.983Z,50.25
2022-11-20T23:00:09.987Z,103.53
2022-11-20T23:02:36.481Z,66.28
2022-11-20T23:05:04.234Z,51.75
2022-11-20T23:07:35.936Z,37.35
2022-11-20T23:10:06.562Z,33.80
2022-11-20T23:12:32.988Z,33.85
2022-11-20T23:14:59.400Z,34.53
2022-11-20T23:17:25.827Z,37.67
2022-11-20T23:19:52.281Z,36.25
2022-11-20T23:22:18.712Z,38.58
2022-11-20T23:24:45.140Z,38.03
2022-11-20T23:27:11.587Z,38.70
2022-11-20T23:29:38.017Z,38.60
2022-11-20T23:32:04.456Z,39.28
2022-11-20T23:34:30.896Z,38.17
2022-11-20T23:36:57.309Z,39.78
2022-11-20T23:39:23.749Z,39.58
2022-11-20T23:41:50.253Z,39.72
2022-11-20T23:44:16.698Z,43.72
2022-11-20T23:46:43.121Z,68.18
2022-11-20T23:49:09.676Z,46.50
2022-11-20T23:51:36.187Z,52.85
2022-11-20T23:54:04.889Z,37.75
2022-11-20T23:56:31.631Z,38.67
2022-11-20T23:58:58.213Z,38.15
